Time;durP1;ratioP1;P1;durP2;ratioP2;P2;SDS_P1;SDS_P2;PMS_P1;PMS_P2;Temp;Humidity;BMP_temperature;BMP_pressure;BME280_temperature;BME280_humidity;BME280_pressure;Samples;Min_cycle;Max_cycle;Signal;HPM_P1;HPM_P2
2022/12/02 00:01:20;;;;;;;105.50;32.60;;;;;;;4.13;100.00;102509.50;4972476;28;20046;-90
2022/12/02 00:03:46;;;;;;;98.97;31.77;;;;;;;4.07;100.00;102495.09;4976942;28;20285;-90
2022/12/02 00:06:27;;;;;;;106.88;36.80;;;;;;;4.06;100.00;102502.22;4978748;28;20033;-90
2022/12/02 00:08:55;;;;;;;95.25;31.42;;;;;;;4.05;100.00;102503.22;4977231;28;20418;-90
2022/12/02 00:11:29;;;;;;;90.45;30.90;;;;;;;4.05;100.00;102497.91;4987207;28;20034;-89
2022/12/02 00:13:57;;;;;;;92.10;31.33;;;;;;;4.00;100.00;102497.63;4999262;28;20047;-89
2022/12/02 00:16:25;;;;;;;84.63;30.00;;;;;;;3.97;100.00;102497.13;4983770;28;20032;-89
2022/12/02 00:18:51;;;;;;;84.38;30.38;;;;;;;3.92;100.00;102492.34;4986920;28;20015;-89
2022/12/02 00:21:17;;;;;;;81.05;29.55;;;;;;;3.87;100.00;102494.69;4996126;28;20038;-89
2022/12/02 00:23:43;;;;;;;82.05;29.02;;;;;;;3.83;100.00;102488.09;4985244;28;20031;-89
2022/12/02 00:26:08;;;;;;;80.90;29.43;;;;;;;3.83;100.00;102488.91;4983956;28;20031;-89
2022/12/02 00:28:34;;;;;;;78.13;28.03;;;;;;;3.87;100.00;102484.06;4982014;28;20030;-89
2022/12/02 00:30:59;;;;;;;75.60;27.67;;;;;;;3.83;100.00;102488.09;4975976;28;20419;-89
2022/12/02 00:33:24;;;;;;;77.33;27.40;;;;;;;3.79;100.00;102480.47;4976355;28;20530;-89
2022/12/02 00:35:49;;;;;;;73.67;27.47;;;;;;;3.76;100.00;102475.50;4975911;28;20027;-90
2022/12/02 00:38:15;;;;;;;78.97;26.97;;;;;;;3.78;100.00;102476.16;4975949;28;20069;-89
2022/12/02 00:40:40;;;;;;;73.87;27.60;;;;;;;3.72;100.00;102466.22;4973578;28;20121;-89
2022/12/02 00:48:37;;;;;;;77.13;28.85;;;;;;;3.71;100.00;102464.56;5013787;28;20052;-89
2022/12/02 00:51:02;;;;;;;76.07;26.40;;;;;;;3.70;100.00;102467.41;5012270;28;20466;-89
2022/12/02 00:53:27;;;;;;;75.57;26.98;;;;;;;3.66;100.00;102461.59;5014579;28;20535;-89
2022/12/02 00:55:53;;;;;;;82.47;28.10;;;;;;;3.69;100.00;102463.91;5014365;28;20054;-89
2022/12/02 00:58:18;;;;;;;79.77;27.67;;;;;;;3.67;100.00;102457.16;5012887;28;20396;-89
2022/12/02 01:00:44;;;;;;;77.17;26.10;;;;;;;3.66;100.00;102460.78;5016077;28;20056;-90
2022/12/02 01:03:10;;;;;;;77.70;28.17;;;;;;;3.69;100.00;102458.63;5016106;28;20029;-90
2022/12/02 01:05:35;;;;;;;73.93;26.85;;;;;;;3.71;100.00;102450.50;5015486;28;20038;-90
2022/12/02 01:08:00;;;;;;;82.27;29.20;;;;;;;3.68;100.00;102459.59;5014375;28;20069;-89
2022/12/02 01:10:26;;;;;;;77.77;27.60;;;;;;;3.67;100.00;102460.59;5012721;28;20026;-89
2022/12/02 01:12:52;;;;;;;87.93;28.93;;;;;;;3.68;100.00;102456.16;5012640;28;20030;-90
2022/12/02 01:15:17;;;;;;;80.15;28.60;;;;;;;3.63;100.00;102452.19;5012265;28;20018;-90
2022/12/02 01:17:42;;;;;;;80.90;28.17;;;;;;;3.61;100.00;102458.66;5013039;28;20041;-88
2022/12/02 01:20:08;;;;;;;78.85;27.92;;;;;;;3.63;100.00;102451.38;5013354;28;20022;-89
2022/12/02 01:22:33;;;;;;;80.37;26.43;;;;;;;3.61;100.00;102448.06;5012916;28;20401;-89
2022/12/02 01:24:59;;;;;;;78.20;25.97;;;;;;;3.56;100.00;102450.38;5013380;28;20077;-90
2022/12/02 01:27:24;;;;;;;74.50;26.57;;;;;;;3.59;100.00;102456.16;5013719;28;20099;-89
2022/12/02 01:29:49;;;;;;;78.37;26.20;;;;;;;3.58;100.00;102448.38;5010289;28;20134;-89
2022/12/02 01:32:15;;;;;;;76.25;26.38;;;;;;;3.58;100.00;102459.00;5013217;28;20517;-89
2022/12/02 01:34:41;;;;;;;75.20;25.27;;;;;;;3.55;100.00;102444.28;5013059;28;20928;-89
2022/12/02 01:37:06;;;;;;;76.68;27.15;;;;;;;3.58;100.00;102454.50;5011773;28;20489;-89
2022/12/02 01:39:32;;;;;;;77.07;27.33;;;;;;;3.59;100.00;102455.34;5013272;28;20049;-89
2022/12/02 01:41:57;;;;;;;80.83;28.20;;;;;;;3.57;100.00;102455.50;5010461;28;20034;-89
2022/12/02 01:44:22;;;;;;;75.03;27.80;;;;;;;3.54;100.00;102447.91;5013076;28;20288;-89
2022/12/02 01:46:50;;;;;;;72.30;25.60;;;;;;;3.56;100.00;102458.34;5011475;28;20037;-89
2022/12/02 01:49:15;;;;;;;70.10;25.98;;;;;;;3.57;100.00;102454.69;5012611;28;20127;-89
2022/12/02 01:51:41;;;;;;;74.87;26.57;;;;;;;3.55;100.00;102451.38;5012090;28;20481;-91
2022/12/02 01:54:06;;;;;;;73.67;27.60;;;;;;;3.55;100.00;102443.44;5013698;28;20037;-92
2022/12/02 01:56:32;;;;;;;75.70;27.37;;;;;;;3.54;100.00;102453.22;5014432;28;20030;-91
2022/12/02 01:58:57;;;;;;;77.63;26.92;;;;;;;3.48;100.00;102451.25;5014193;28;20021;-91
2022/12/02 02:01:33;;;;;;;70.60;26.07;;;;;;;3.51;100.00;102456.19;5017574;28;20038;-92
2022/12/02 02:04:00;;;;;;;75.10;26.80;;;;;;;3.51;100.00;102447.41;5011630;28;20034;-92
2022/12/02 02:06:29;;;;;;;75.70;27.20;;;;;;;3.49;100.00;102451.06;5015529;28;20041;-92
2022/12/02 02:08:56;;;;;;;76.80;26.45;;;;;;;3.45;100.00;102460.38;5015440;28;20075;-91
2022/12/02 02:11:23;;;;;;;69.07;24.77;;;;;;;3.46;100.00;102445.28;5010968;28;20117;-91
2022/12/02 02:13:48;;;;;;;76.27;27.87;;;;;;;3.43;100.00;102449.09;5011594;28;20297;-92
2022/12/02 02:16:14;;;;;;;81.82;29.20;;;;;;;3.38;100.00;102451.44;5011562;28;20117;-91
2022/12/02 02:18:39;;;;;;;80.60;29.13;;;;;;;3.38;100.00;102454.06;5013612;28;20029;-90
2022/12/02 02:21:08;;;;;;;76.38;27.38;;;;;;;3.40;100.00;102451.25;5023900;28;20091;-91
2022/12/02 02:23:35;;;;;;;63.03;21.80;;;;;;;3.36;100.00;102445.47;5020952;28;20388;-92
2022/12/02 02:26:02;;;;;;;80.73;28.80;;;;;;;3.33;100.00;102451.09;5011485;28;20343;-91
2022/12/02 02:28:27;;;;;;;73.93;25.20;;;;;;;3.31;100.00;102453.09;5011640;28;20021;-91
2022/12/02 02:30:55;;;;;;;77.38;25.42;;;;;;;3.29;100.00;102450.63;5009493;28;20084;-92
2022/12/02 02:33:23;;;;;;;82.93;26.53;;;;;;;3.21;100.00;102453.28;5011435;28;20108;-92
2022/12/02 02:35:49;;;;;;;76.10;26.57;;;;;;;3.15;100.00;102448.66;5011598;28;20308;-92
2022/12/02 02:38:19;;;;;;;74.30;26.02;;;;;;;3.13;100.00;102446.16;5011310;28;20034;-92
2022/12/02 02:40:45;;;;;;;70.72;23.50;;;;;;;3.17;100.00;102449.31;5009973;28;20064;-92
2022/12/02 02:43:11;;;;;;;79.15;25.98;;;;;;;3.07;100.00;102441.56;5011677;28;20034;-92
2022/12/02 02:45:40;;;;;;;72.15;26.27;;;;;;;3.10;100.00;102438.59;5011423;28;20092;-92
2022/12/02 02:48:08;;;;;;;71.73;26.27;;;;;;;3.08;100.00;102432.63;5011231;28;20049;-91
2022/12/02 02:50:35;;;;;;;73.85;26.38;;;;;;;3.07;100.00;102436.25;5009974;28;20133;-92
2022/12/02 02:53:04;;;;;;;75.72;25.55;;;;;;;3.01;100.00;102426.34;5010257;28;20382;-91
2022/12/02 02:55:31;;;;;;;70.07;24.85;;;;;;;3.01;100.00;102432.44;5011400;28;20026;-92
2022/12/02 02:58:25;;;;;;;66.20;24.00;;;;;;;3.05;100.00;102427.66;5011053;28;20030;-91
2022/12/02 03:00:58;;;;;;;66.47;23.85;;;;;;;3.02;100.00;102433.28;5009661;28;20068;-92
2022/12/02 03:03:27;;;;;;;74.25;26.15;;;;;;;3.00;100.00;102429.97;5009677;28;20477;-91
2022/12/02 03:05:54;;;;;;;73.55;26.35;;;;;;;2.98;100.00;102421.38;5009537;28;20025;-92
2022/12/02 03:08:22;;;;;;;65.77;25.03;;;;;;;2.93;100.00;102424.53;5009720;28;20038;-92
2022/12/02 03:10:48;;;;;;;68.30;23.90;;;;;;;2.93;100.00;102413.94;5009602;28;20384;-91
2022/12/02 03:13:14;;;;;;;67.35;24.13;;;;;;;2.95;100.00;102411.09;5009898;28;20402;-92
2022/12/02 03:15:40;;;;;;;64.38;23.73;;;;;;;2.85;100.00;102405.97;5008956;28;20036;-90
2022/12/02 03:18:05;;;;;;;67.13;24.00;;;;;;;2.89;100.00;102404.66;5011199;28;20400;-91
2022/12/02 03:20:31;;;;;;;67.63;24.83;;;;;;;2.90;100.00;102405.50;5009071;28;20026;-91
2022/12/02 03:22:56;;;;;;;69.60;25.07;;;;;;;2.83;100.00;102406.16;5010651;28;20473;-91
2022/12/02 03:25:21;;;;;;;62.57;22.37;;;;;;;2.78;100.00;102411.13;5009484;28;20033;-92
2022/12/02 03:27:47;;;;;;;66.45;22.88;;;;;;;2.76;100.00;102418.41;5009732;28;20041;-92
2022/12/02 03:30:12;;;;;;;72.27;24.47;;;;;;;2.76;100.00;102417.59;5008933;28;20029;-91
2022/12/02 03:32:38;;;;;;;62.17;23.33;;;;;;;2.74;100.00;102420.38;5010803;28;20072;-90
2022/12/02 03:35:04;;;;;;;61.50;21.98;;;;;;;2.69;100.00;102420.88;5011053;28;20038;-91
2022/12/02 03:37:30;;;;;;;62.10;22.20;;;;;;;2.67;100.00;102419.41;5010752;28;20021;-91
2022/12/02 03:39:55;;;;;;;55.85;18.85;;;;;;;2.64;100.00;102409.16;5014480;28;20033;-91
2022/12/02 03:42:21;;;;;;;67.67;22.83;;;;;;;2.61;100.00;102404.19;5015485;28;20050;-92
2022/12/02 03:44:47;;;;;;;58.13;21.70;;;;;;;2.71;100.00;102396.91;5015615;28;20029;-90
2022/12/02 03:47:13;;;;;;;65.95;21.50;;;;;;;2.61;100.00;102398.88;5017239;28;20515;-91
2022/12/02 03:49:38;;;;;;;59.97;20.87;;;;;;;2.51;100.00;102394.59;5013786;28;20022;-92
2022/12/02 03:52:04;;;;;;;63.25;22.70;;;;;;;2.60;100.00;102403.38;5006358;28;20482;-91
2022/12/02 03:54:29;;;;;;;68.37;23.23;;;;;;;2.61;100.00;102397.09;5003233;28;20085;-90
2022/12/02 03:56:55;;;;;;;73.97;23.23;;;;;;;2.58;100.00;102395.56;5012008;28;20030;-91
2022/12/02 03:59:24;;;;;;;65.63;21.60;;;;;;;2.58;100.00;102379.69;5018085;28;20044;-91
2022/12/02 04:01:50;;;;;;;68.72;24.25;;;;;;;2.50;100.00;102387.66;5017165;28;20120;-91
2022/12/02 04:04:15;;;;;;;65.65;22.42;;;;;;;2.48;100.00;102389.63;5017439;28;20052;-91
2022/12/02 04:06:40;;;;;;;69.90;22.80;;;;;;;2.50;100.00;102392.94;5013692;28;20097;-90
2022/12/02 04:09:06;;;;;;;68.03;22.13;;;;;;;2.52;100.00;102387.47;5016883;28;20481;-91
2022/12/02 04:11:31;;;;;;;66.83;22.33;;;;;;;2.51;100.00;102383.16;5016715;28;20069;-90
2022/12/02 04:13:56;;;;;;;69.77;23.47;;;;;;;2.49;100.00;102375.41;5008260;28;20504;-91
2022/12/02 04:16:22;;;;;;;67.53;22.27;;;;;;;2.47;100.00;102373.91;5019917;28;20073;-90
2022/12/02 04:18:47;;;;;;;68.60;22.03;;;;;;;2.49;100.00;102370.13;5024400;28;20038;-91
2022/12/02 04:21:12;;;;;;;67.80;23.10;;;;;;;2.47;100.00;102374.75;5016286;28;20037;-90
2022/12/02 04:23:38;;;;;;;58.63;21.97;;;;;;;2.45;100.00;102370.63;5018300;28;20030;-91
2022/12/02 04:26:03;;;;;;;62.87;21.60;;;;;;;2.38;100.00;102373.06;5016548;28;20072;-91
2022/12/02 04:28:29;;;;;;;63.70;19.77;;;;;;;2.40;100.00;102373.75;5015614;28;20037;-90
2022/12/02 04:30:54;;;;;;;57.97;20.23;;;;;;;2.39;100.00;102374.72;5014064;28;20025;-92
2022/12/02 04:33:19;;;;;;;61.43;19.73;;;;;;;2.37;100.00;102371.44;5016783;28;20037;-91
2022/12/02 04:35:45;;;;;;;59.90;19.30;;;;;;;2.36;100.00;102381.19;5015027;28;20026;-88
2022/12/02 04:38:10;;;;;;;55.10;18.73;;;;;;;2.41;100.00;102378.03;5016322;28;20030;-89
2022/12/02 04:40:35;;;;;;;47.20;16.90;;;;;;;2.37;100.00;102377.56;5014166;28;20507;-89
2022/12/02 04:43:00;;;;;;;51.37;17.27;;;;;;;2.36;100.00;102385.66;5016403;28;20107;-89
2022/12/02 04:45:26;;;;;;;45.70;15.65;;;;;;;2.33;100.00;102370.13;5015748;28;20025;-89
2022/12/02 04:47:51;;;;;;;37.73;13.67;;;;;;;2.32;100.00;102363.16;5015065;28;20037;-89
2022/12/02 04:50:25;;;;;;;53.77;18.37;;;;;;;2.37;100.00;102377.56;5012534;28;20033;-89
2022/12/02 04:52:51;;;;;;;51.15;17.27;;;;;;;2.34;100.00;102363.84;5011198;28;20038;-89
2022/12/02 04:55:16;;;;;;;45.63;15.40;;;;;;;2.33;100.00;102370.13;5013833;28;20026;-89
2022/12/02 04:57:41;;;;;;;49.67;16.50;;;;;;;2.26;100.00;102362.81;5012399;28;20025;-92
2022/12/02 05:00:08;;;;;;;48.63;16.90;;;;;;;2.29;100.00;102355.56;5012823;28;20113;-92
2022/12/02 05:02:33;;;;;;;54.67;18.27;;;;;;;2.31;100.00;102346.44;5012749;28;20060;-92
2022/12/02 05:04:58;;;;;;;47.67;17.33;;;;;;;2.35;100.00;102344.31;5011956;28;20029;-93
2022/12/02 05:07:24;;;;;;;45.80;16.37;;;;;;;2.33;100.00;102352.41;5011113;28;20022;-91
2022/12/02 05:09:49;;;;;;;49.20;16.10;;;;;;;2.33;100.00;102343.66;5012748;28;20457;-92
2022/12/02 05:12:15;;;;;;;52.50;17.60;;;;;;;2.39;100.00;102342.97;5013441;28;20515;-91
2022/12/02 05:14:40;;;;;;;51.10;17.93;;;;;;;2.33;100.00;102354.25;5011628;28;20105;-91
2022/12/02 05:17:05;;;;;;;49.00;17.13;;;;;;;2.27;100.00;102330.09;5011815;28;20032;-91
2022/12/02 05:19:30;;;;;;;42.17;15.77;;;;;;;2.29;100.00;102339.69;5009294;28;20448;-92
2022/12/02 05:21:56;;;;;;;52.35;16.95;;;;;;;2.29;100.00;102324.63;5009436;28;20445;-92
2022/12/02 05:24:21;;;;;;;46.50;15.83;;;;;;;2.31;100.00;102335.06;5012846;28;20125;-92
2022/12/02 05:26:46;;;;;;;52.43;17.13;;;;;;;2.34;100.00;102330.25;5013488;28;20458;-92
2022/12/02 05:29:12;;;;;;;49.60;17.10;;;;;;;2.33;100.00;102343.66;5005095;28;20026;-92
2022/12/02 05:31:37;;;;;;;49.23;16.13;;;;;;;2.37;100.00;102348.44;5012383;28;20401;-94
2022/12/02 05:34:02;;;;;;;51.70;17.17;;;;;;;2.29;100.00;102348.44;5013248;28;20080;-94
2022/12/02 05:36:30;;;;;;;41.37;15.03;;;;;;;2.35;100.00;102336.38;5011976;28;20113;-96
2022/12/02 05:38:55;;;;;;;47.13;16.02;;;;;;;2.34;100.00;102332.09;5018252;28;20033;-95
2022/12/02 05:41:21;;;;;;;46.17;16.47;;;;;;;2.32;100.00;102334.06;5014590;28;20030;-91
2022/12/02 05:43:49;;;;;;;48.92;16.77;;;;;;;2.28;100.00;102333.59;5006050;28;20032;-92
2022/12/02 05:46:20;;;;;;;46.07;16.07;;;;;;;2.29;100.00;102332.56;5011021;28;20028;-92
2022/12/02 05:48:47;;;;;;;46.33;15.60;;;;;;;2.27;100.00;102324.00;5009577;28;20300;-90
2022/12/02 05:51:16;;;;;;;41.75;14.52;;;;;;;2.31;100.00;102330.59;5011418;28;20026;-91
2022/12/02 05:53:46;;;;;;;50.60;16.02;;;;;;;2.27;100.00;102329.28;5012697;28;20050;-92
2022/12/02 05:56:24;;;;;;;45.20;15.57;;;;;;;2.26;100.00;102336.38;5010237;28;20033;-91
2022/12/02 05:58:50;;;;;;;44.53;14.95;;;;;;;2.27;100.00;102337.22;5011156;28;20481;-95
2022/12/02 06:01:30;;;;;;;54.17;16.47;;;;;;;2.31;100.00;102329.78;5011606;28;20113;-92
2022/12/02 06:03:57;;;;;;;49.67;15.15;;;;;;;2.29;100.00;102329.91;5012263;28;20040;-91
2022/12/02 06:06:27;;;;;;;49.45;15.82;;;;;;;2.29;100.00;102331.75;5009991;28;20029;-92
2022/12/02 06:08:54;;;;;;;51.65;16.88;;;;;;;2.25;100.00;102329.44;5009988;28;20034;-92
2022/12/02 06:11:35;;;;;;;44.55;14.63;;;;;;;2.26;100.00;102336.38;5019424;28;20038;-89
2022/12/02 06:14:08;;;;;;;48.73;15.87;;;;;;;2.31;100.00;102330.59;5017961;28;20053;-89
2022/12/02 06:16:34;;;;;;;52.63;15.80;;;;;;;2.30;100.00;102323.63;5009435;28;20321;-90
2022/12/02 06:19:18;;;;;;;48.72;16.02;;;;;;;2.24;100.00;102330.41;5012299;28;20440;-91
2022/12/02 06:21:44;;;;;;;49.22;15.93;;;;;;;2.24;100.00;102335.72;4994512;28;20475;-90
2022/12/02 06:24:11;;;;;;;48.87;15.50;;;;;;;2.25;100.00;102336.56;5011931;28;20084;-91
2022/12/02 06:26:36;;;;;;;48.20;15.75;;;;;;;2.21;100.00;102328.09;5007739;28;20041;-92
2022/12/02 06:29:03;;;;;;;44.08;14.50;;;;;;;2.25;100.00;102337.38;5004787;28;20030;-89
2022/12/02 06:31:37;;;;;;;37.70;14.07;;;;;;;2.23;100.00;102335.88;5008565;28;20034;-93
2022/12/02 06:34:37;;;;;;;41.20;13.83;;;;;;;2.29;100.00;102331.75;4998625;28;20091;-94
2022/12/02 06:37:22;;;;;;;40.27;13.23;;;;;;;2.15;100.00;102326.13;5005755;28;20332;-91
2022/12/02 06:39:52;;;;;;;44.05;14.13;;;;;;;2.07;100.00;102326.94;5023068;28;20026;-89
2022/12/02 06:42:32;;;;;;;42.53;14.25;;;;;;;2.15;100.00;102341.16;5023466;28;20045;-93
2022/12/02 06:45:19;;;;;;;40.50;13.57;;;;;;;2.10;100.00;102341.66;5023080;28;20036;-92
2022/12/02 06:48:23;;;;;;;44.22;14.70;;;;;;;2.05;100.00;102336.88;4998397;28;20121;-91
2022/12/02 06:50:51;;;;;;;41.88;14.10;;;;;;;2.07;100.00;102334.03;5009073;28;20034;-93
2022/12/02 06:53:33;;;;;;;42.10;14.00;;;;;;;2.07;100.00;102337.53;5014025;28;20481;-94
2022/12/02 06:56:00;;;;;;;41.73;13.47;;;;;;;2.09;100.00;102332.06;5014830;28;20335;-90
2022/12/02 06:58:38;;;;;;;38.67;12.38;;;;;;;2.10;100.00;102333.72;5006851;28;20030;-89
2022/12/02 07:01:06;;;;;;;42.03;14.48;;;;;;;2.08;100.00;102341.00;5002706;28;20053;-88
2022/12/02 07:03:34;;;;;;;42.33;14.98;;;;;;;2.08;100.00;102325.97;5001828;28;20057;-91
2022/12/02 07:06:17;;;;;;;41.40;13.43;;;;;;;2.10;100.00;102337.19;5013209;28;20026;-93
2022/12/02 07:08:42;;;;;;;43.42;13.40;;;;;;;2.08;100.00;102341.84;5026577;28;20026;-92
2022/12/02 07:11:19;;;;;;;45.10;13.30;;;;;;;2.08;100.00;102341.00;5015432;28;20067;-94
2022/12/02 07:13:48;;;;;;;44.92;14.43;;;;;;;2.07;100.00;102340.19;5009714;28;20026;-92
2022/12/02 07:16:33;;;;;;;40.50;13.10;;;;;;;2.17;100.00;102337.38;5010130;28;20083;-95
2022/12/02 07:19:09;;;;;;;;;;;;;;;;;;;;;
2022/12/02 07:21:34;;;;;;;47.70;13.97;;;;;;;2.05;100.00;102330.72;5013069;28;20392;-95
2022/12/02 07:24:00;;;;;;;49.57;14.13;;;;;;;2.12;100.00;102337.03;5016046;28;20309;-95
2022/12/02 07:26:35;;;;;;;;;;;;;;;;;;;;;
2022/12/02 07:29:39;;;;;;;;;;;;;;;;;;;;;
2022/12/02 07:32:09;;;;;;;44.35;13.93;;;;;;;1.96;100.00;102320.16;5004272;28;20048;-93
2022/12/02 07:34:52;;;;;;;41.90;13.37;;;;;;;1.96;100.00;102322.81;5011417;28;20057;-90
2022/12/02 07:37:23;;;;;;;37.70;12.73;;;;;;;1.98;100.00;102317.34;5011205;28;20319;-94
2022/12/02 07:43:02;;;;;;;31.52;10.90;;;;;;;2.09;100.00;102338.19;5012439;28;20026;-96
2022/12/02 07:45:43;;;;;;;;;;;;;;;;;;;;;
2022/12/02 07:51:07;;;;;;;;;;;;;;;;;;;;;
2022/12/02 07:53:45;;;;;;;;;;;;;;;;;;;;;
2022/12/02 07:56:23;;;;;;;;;;;;;;;;;;;;;
2022/12/02 07:59:04;;;;;;;38.25;12.40;;;;;;;2.04;100.00;102337.84;5008551;28;20050;-92
2022/12/02 08:02:13;;;;;;;40.22;13.55;;;;;;;2.09;100.00;102342.66;5011788;28;20024;-92
2022/12/02 08:05:08;;;;;;;;;;;;;;;;;;;;;
2022/12/02 08:13:54;;;;;;;41.00;13.30;;;;;;;1.98;100.00;102319.19;4997764;28;20089;-92
2022/12/02 08:16:37;;;;;;;41.45;12.55;;;;;;;2.07;100.00;102326.13;5011594;28;20030;-91
2022/12/02 08:19:14;;;;;;;42.00;13.10;;;;;;;2.09;100.00;102332.91;5010457;28;20088;-91
2022/12/02 08:21:47;;;;;;;40.53;12.80;;;;;;;1.94;100.00;102316.00;5009967;28;21148;-91
2022/12/02 08:24:14;;;;;;;38.50;13.63;;;;;;;2.11;100.00;102340.66;5012891;28;20026;-90
2022/12/02 08:26:50;;;;;;;;;;;;;;;;;;;;;
2022/12/02 08:30:21;;;;;;;;;;;;;;;;;;;;;
2022/12/02 08:50:27;;;;;;;;;;;;;;;;;;;;;
2022/12/02 08:53:27;;;;;;;45.35;15.32;;;;;;;1.96;100.00;102337.84;4929580;29;20043;-93
2022/12/02 08:56:53;;;;;;;;;;;;;;;;;;;;;
2022/12/02 08:59:19;;;;;;;43.30;14.90;;;;;;;1.87;100.00;102315.84;4926038;29;20039;-90
2022/12/02 09:01:57;;;;;;;;;;;;;;;;;;;;;
2022/12/02 09:04:22;;;;;;;43.70;13.75;;;;;;;1.79;100.00;102310.56;4984179;28;20040;-91
2022/12/02 09:06:55;;;;;;;40.57;13.87;;;;;;;1.86;100.00;102316.81;5012289;28;20112;-90
2022/12/02 09:09:33;;;;;;;;;;;;;;;;;;;;;
2022/12/02 09:15:12;;;;;;;45.08;14.55;;;;;;;1.69;100.00;102315.13;5002683;28;20034;-89
2022/12/02 09:17:37;;;;;;;36.70;12.75;;;;;;;1.70;100.00;102324.72;5009615;28;20033;-87
2022/12/02 09:20:11;;;;;;;42.47;13.90;;;;;;;1.68;100.00;102330.19;5012029;28;20105;-95
2022/12/02 09:23:06;;;;;;;44.00;14.13;;;;;;;1.74;100.00;102339.28;5014129;28;20050;-88
2022/12/02 09:25:53;;;;;;;40.30;13.75;;;;;;;1.69;100.00;102337.13;5015471;28;20129;-94
2022/12/02 09:36:49;;;;;;;;;;;;;;;;;;;;;
2022/12/02 09:53:29;;;;;;;38.20;12.57;;;;;;;1.70;100.00;102287.72;4814097;26;20074;-93
2022/12/02 10:02:07;;;;;;;36.70;11.80;;;;;;;1.75;100.00;102288.06;4905850;29;20046;-87
2022/12/02 10:04:38;;;;;;;35.78;11.70;;;;;;;1.88;100.00;102303.47;4913043;29;20062;-87
2022/12/02 10:20:35;;;;;;;46.77;15.03;;;;;;;1.79;100.00;102289.41;5025403;23;20312;-92
2022/12/02 10:41:01;;;;;;;47.87;14.03;;;;;;;1.85;100.00;102269.41;5175346;22;20017;-93
2022/12/02 11:02:29;;;;;;;56.17;16.80;;;;;;;2.47;100.00;102273.34;5124095;23;20077;-92
2022/12/02 13:40:05;;;;;;;39.85;12.30;;;;;;;3.01;100.00;102180.03;5005015;28;20058;-90
2022/12/02 14:05:42;;;;;;;22.20;8.63;;;;;;;2.88;100.00;102193.81;5704987;23;20049;-94
2022/12/02 14:08:07;;;;;;;28.03;9.93;;;;;;;2.87;100.00;102206.25;5032382;28;20025;-94
2022/12/02 14:10:32;;;;;;;27.88;8.55;;;;;;;2.84;100.00;102205.75;5028804;28;20099;-94
2022/12/02 14:12:58;;;;;;;25.23;8.80;;;;;;;2.80;100.00;102207.09;5033514;28;20435;-91
2022/12/02 14:15:23;;;;;;;31.60;11.30;;;;;;;2.82;100.00;102186.59;5030583;28;20026;-92
2022/12/02 14:28:20;;;;;;;;;;;;;;;;;;;;;
2022/12/02 14:30:47;;;;;;;27.60;8.55;;;;;;;2.53;100.00;102186.19;5072051;28;20123;-95
2022/12/02 14:36:39;;;;;;;;;;;;;;;;;;;;;
2022/12/02 14:57:47;;;;;;;;;;;;;;;;;;;;;
2022/12/02 15:18:08;;;;;;;;;;;;;;;;;;;;;
2022/12/02 15:20:58;;;;;;;39.17;13.30;;;;;;;2.08;100.00;102229.91;4768043;29;20110;-95
2022/12/02 15:23:39;;;;;;;;;;;;;;;;;;;;;
2022/12/02 15:26:48;;;;;;;39.90;14.60;;;;;;;2.01;100.00;102236.88;4812043;29;20095;-96
2022/12/02 15:29:31;;;;;;;39.53;14.30;;;;;;;1.87;100.00;102220.66;4809234;29;20039;-96
2022/12/02 15:50:16;;;;;;;47.85;18.95;;;;;;;1.69;100.00;102220.84;4838084;29;20051;-96
2022/12/02 16:06:10;;;;;;;62.05;23.02;;;;;;;1.79;100.00;102253.22;4916440;29;20098;-90
2022/12/02 16:08:35;;;;;;;68.43;22.48;;;;;;;1.72;100.00;102240.81;5020525;28;20045;-94
2022/12/02 16:11:10;;;;;;;;;;;;;;;;;;;;;
2022/12/02 16:13:46;;;;;;;66.70;23.92;;;;;;;1.54;100.00;102238.34;5043365;28;20033;-92
2022/12/02 16:16:37;;;;;;;55.70;22.15;;;;;;;1.62;100.00;102231.25;5050945;28;20031;-93
2022/12/02 16:18:59;;;;;;;72.15;25.58;;;;;;;1.65;100.00;102254.69;5048119;28;20029;-93
2022/12/02 16:21:24;;;;;;;73.87;26.80;;;;;;;1.73;100.00;102266.25;5048692;28;20036;-91
2022/12/02 16:23:50;;;;;;;72.73;25.50;;;;;;;1.60;100.00;102257.00;5049735;28;20030;-91
2022/12/02 16:26:15;;;;;;;72.67;26.10;;;;;;;1.60;100.00;102266.72;5046025;28;20033;-93
2022/12/02 16:28:41;;;;;;;61.47;22.90;;;;;;;1.58;100.00;102268.72;5051338;28;20032;-90
2022/12/02 16:31:08;;;;;;;60.70;23.15;;;;;;;1.57;100.00;102274.97;5051508;28;20021;-91
2022/12/02 16:33:33;;;;;;;96.97;42.60;;;;;;;1.67;100.00;102271.19;5049391;28;20025;-91
2022/12/02 16:35:58;;;;;;;85.80;36.37;;;;;;;1.56;100.00;102268.88;5049577;28;20029;-90
2022/12/02 16:38:24;;;;;;;72.57;27.35;;;;;;;1.55;100.00;102277.78;5047705;28;20106;-92
2022/12/02 16:40:49;;;;;;;61.63;21.97;;;;;;;1.52;100.00;102283.41;5050744;28;20025;-93
2022/12/02 16:43:14;;;;;;;53.30;20.77;;;;;;;1.49;100.00;102270.50;5050354;28;20484;-93
2022/12/02 16:45:40;;;;;;;51.67;19.27;;;;;;;1.49;100.00;102281.06;5051009;28;20025;-91
2022/12/02 16:48:05;;;;;;;51.23;20.23;;;;;;;1.44;100.00;102273.63;5053087;28;20111;-92
2022/12/02 16:50:31;;;;;;;48.60;18.08;;;;;;;1.57;100.00;102275.81;5051014;28;20033;-93
2022/12/02 16:52:56;;;;;;;40.27;14.93;;;;;;;1.48;100.00;102280.25;5051299;28;20438;-92
2022/12/02 16:55:21;;;;;;;46.63;17.30;;;;;;;1.40;100.00;102260.91;5053219;28;20516;-92
2022/12/02 16:57:46;;;;;;;47.10;17.33;;;;;;;1.45;100.00;102285.84;5053397;28;20516;-91
2022/12/02 17:00:12;;;;;;;43.03;16.50;;;;;;;1.44;100.00;102272.81;5053670;28;20029;-91
2022/12/02 17:02:40;;;;;;;45.20;17.48;;;;;;;1.40;100.00;102282.88;5052292;28;20307;-92
2022/12/02 17:05:06;;;;;;;46.13;18.25;;;;;;;1.44;100.00;102286.03;5057490;28;20530;-91
2022/12/02 17:07:31;;;;;;;45.20;18.23;;;;;;;1.39;100.00;102288.31;5050439;28;20108;-91
2022/12/02 17:09:56;;;;;;;45.13;16.77;;;;;;;1.34;100.00;102276.41;5052082;28;20059;-91
2022/12/02 17:12:22;;;;;;;50.33;17.90;;;;;;;1.42;100.00;102288.00;5052964;28;20109;-91
2022/12/02 17:14:47;;;;;;;51.00;17.60;;;;;;;1.40;100.00;102290.78;5034105;28;20060;-91
2022/12/02 17:17:12;;;;;;;53.17;18.70;;;;;;;1.41;100.00;102294.28;5052602;28;20104;-90
2022/12/02 17:19:38;;;;;;;43.50;16.53;;;;;;;1.36;100.00;102290.28;5052602;28;20094;-90
2022/12/02 17:22:03;;;;;;;48.17;17.60;;;;;;;1.38;100.00;102284.03;5053438;28;20028;-91
2022/12/02 17:24:28;;;;;;;43.30;17.15;;;;;;;1.48;100.00;102282.91;5052473;28;20024;-90
2022/12/02 17:26:54;;;;;;;49.77;19.40;;;;;;;1.36;100.00;102284.19;5052811;28;20036;-91
2022/12/02 17:29:19;;;;;;;49.43;17.73;;;;;;;1.30;100.00;102275.06;5052460;28;20392;-92
2022/12/02 17:31:44;;;;;;;47.80;18.13;;;;;;;1.36;100.00;102282.38;5052777;28;20072;-91
2022/12/02 17:34:10;;;;;;;47.00;17.60;;;;;;;1.41;100.00;102281.06;5035119;28;20075;-91
2022/12/02 17:36:36;;;;;;;44.03;17.77;;;;;;;1.43;100.00;102289.66;5051681;28;20361;-89
2022/12/02 17:39:21;;;;;;;;;;;;;;;;;;;;;
2022/12/02 17:41:54;;;;;;;52.85;19.23;;;;;;;1.29;100.00;102270.78;5057764;28;20041;-90
2022/12/02 17:47:36;;;;;;;49.20;16.85;;;;;;;1.39;100.00;102293.59;4937088;28;20043;-92
2022/12/02 17:50:22;;;;;;;54.15;18.83;;;;;;;1.26;100.00;102267.63;4916738;29;20039;-90
2022/12/02 17:53:14;;;;;;;49.37;16.60;;;;;;;1.35;100.00;102278.06;4993079;28;20045;-90
2022/12/02 17:56:05;;;;;;;46.03;17.05;;;;;;;1.21;100.00;102260.19;5015081;28;20026;-90
2022/12/02 17:58:27;;;;;;;45.80;18.00;;;;;;;1.25;100.00;102277.38;5031192;28;20037;-92
2022/12/02 18:00:52;;;;;;;48.53;17.70;;;;;;;1.35;100.00;102287.81;5069085;28;20083;-90
2022/12/02 18:03:18;;;;;;;48.60;18.80;;;;;;;1.35;100.00;102303.66;5040618;28;20044;-89
2022/12/02 18:05:43;;;;;;;47.00;17.60;;;;;;;1.35;100.00;102293.91;5061796;28;20562;-91
2022/12/02 18:08:08;;;;;;;46.27;16.60;;;;;;;1.33;100.00;102295.06;5069881;28;20036;-91
2022/12/02 18:10:33;;;;;;;45.07;17.07;;;;;;;1.31;100.00;102287.28;5072038;28;20021;-92
2022/12/02 18:12:59;;;;;;;47.90;19.13;;;;;;;1.47;100.00;102301.53;5049788;28;20419;-92